Manley Hot Springs, Alaska
Current Conditions -  °F | °C
As of 12:52 AM on Sunday 26 Oct 2014 (Local Time) from PATA Reporting Station
Overcast Overcast  
Wind Chill: 14°   Ceiling: 900
Heat Index: 24°   Visibility: 10mi
Dew Point: 20°   Wind: 10mph
Humidity: 84%   Direction: 110°ESE
Pressure: 29.88"   Gusts: NA
Location:  65°N, 150.64°W
Report Text: PATA 260852Z AUTO 11009KT 10SM OVC009 M04/M07 A2988 RMK AO2 SLP124 T10441067 410221194 53004 TSNO $
Loading
Personal Weather Stations






























Interactive Weather Map
Tropical Storm Tracking
New forecast layout! Learn more

10-Day Weather Forecast

Advertisements
Track Severe Weather on mobile